sensor_id;sensor_type;location;lat;lon;timestamp;pressure;altitude;pressure_sealevel;temperature;humidity
39715;BME280;54166;53.172;-6.552;2023-04-27T00:00:32;99018.31;;;16.95;31.97
39715;BME280;54166;53.172;-6.552;2023-04-27T00:02:59;99018.91;;;16.55;31.96
39715;BME280;54166;53.172;-6.552;2023-04-27T00:05:26;99017.17;;;16.55;31.94
39715;BME280;54166;53.172;-6.552;2023-04-27T00:07:54;99010.62;;;16.94;31.91
39715;BME280;54166;53.172;-6.552;2023-04-27T00:10:21;99010.86;;;16.54;31.90
39715;BME280;54166;53.172;-6.552;2023-04-27T00:12:48;99012.56;;;17.27;31.91
39715;BME280;54166;53.172;-6.552;2023-04-27T00:15:14;99015.74;;;16.52;31.91
39715;BME280;54166;53.172;-6.552;2023-04-27T00:17:41;99021.12;;;16.52;31.90
39715;BME280;54166;53.172;-6.552;2023-04-27T00:20:09;99021.22;;;16.50;31.89
39715;BME280;54166;53.172;-6.552;2023-04-27T00:22:37;99020.31;;;16.50;31.87
39715;BME280;54166;53.172;-6.552;2023-04-27T00:25:05;99015.87;;;16.49;31.86
39715;BME280;54166;53.172;-6.552;2023-04-27T00:27:33;99011.76;;;16.49;31.85
39715;BME280;54166;53.172;-6.552;2023-04-27T00:30:00;99009.74;;;16.47;31.85
39715;BME280;54166;53.172;-6.552;2023-04-27T00:32:27;99006.40;;;16.87;31.85
39715;BME280;54166;53.172;-6.552;2023-04-27T00:34:54;99002.54;;;16.46;31.83
39715;BME280;54166;53.172;-6.552;2023-04-27T00:37:21;99005.88;;;16.46;31.82
39715;BME280;54166;53.172;-6.552;2023-04-27T00:39:49;99004.99;;;16.46;31.82
39715;BME280;54166;53.172;-6.552;2023-04-27T00:42:16;98999.39;;;16.45;31.82
39715;BME280;54166;53.172;-6.552;2023-04-27T00:44:42;98993.27;;;16.45;31.83
39715;BME280;54166;53.172;-6.552;2023-04-27T00:47:10;98983.34;;;16.45;31.81
39715;BME280;54166;53.172;-6.552;2023-04-27T00:49:38;98976.83;;;16.44;31.83
39715;BME280;54166;53.172;-6.552;2023-04-27T00:52:06;98970.40;;;16.43;31.86
39715;BME280;54166;53.172;-6.552;2023-04-27T00:54:34;98968.31;;;16.42;31.88
39715;BME280;54166;53.172;-6.552;2023-04-27T00:57:01;98966.44;;;16.43;31.88
39715;BME280;54166;53.172;-6.552;2023-04-27T00:59:28;98960.54;;;16.41;31.88
39715;BME280;54166;53.172;-6.552;2023-04-27T01:01:56;98963.33;;;16.81;31.88
39715;BME280;54166;53.172;-6.552;2023-04-27T01:04:23;98965.10;;;16.42;31.89
39715;BME280;54166;53.172;-6.552;2023-04-27T01:06:51;98963.53;;;16.42;31.88
39715;BME280;54166;53.172;-6.552;2023-04-27T01:09:18;98963.32;;;16.43;31.88
39715;BME280;54166;53.172;-6.552;2023-04-27T01:11:45;98965.15;;;16.43;31.86
39715;BME280;54166;53.172;-6.552;2023-04-27T01:14:12;98957.34;;;16.42;31.87
39715;BME280;54166;53.172;-6.552;2023-04-27T01:16:39;98952.01;;;16.41;31.99
39715;BME280;54166;53.172;-6.552;2023-04-27T01:19:07;98952.98;;;16.82;32.02
39715;BME280;54166;53.172;-6.552;2023-04-27T01:21:34;98945.84;;;16.43;32.03
39715;BME280;54166;53.172;-6.552;2023-04-27T01:24:02;98940.19;;;16.43;32.19
39715;BME280;54166;53.172;-6.552;2023-04-27T01:26:29;98933.91;;;17.16;32.03
39715;BME280;54166;53.172;-6.552;2023-04-27T01:28:56;98930.22;;;16.43;32.01
39715;BME280;54166;53.172;-6.552;2023-04-27T01:31:23;98924.37;;;16.43;32.03
39715;BME280;54166;53.172;-6.552;2023-04-27T01:33:50;98918.01;;;16.41;32.04
39715;BME280;54166;53.172;-6.552;2023-04-27T01:36:17;98913.16;;;16.41;32.07
39715;BME280;54166;53.172;-6.552;2023-04-27T01:38:44;98905.89;;;16.81;32.09
39715;BME280;54166;53.172;-6.552;2023-04-27T01:41:12;98900.19;;;16.41;32.10
39715;BME280;54166;53.172;-6.552;2023-04-27T01:43:39;98898.78;;;16.42;32.15
39715;BME280;54166;53.172;-6.552;2023-04-27T01:46:07;98897.30;;;16.83;32.25
39715;BME280;54166;53.172;-6.552;2023-04-27T01:48:34;98895.73;;;16.43;32.27
39715;BME280;54166;53.172;-6.552;2023-04-27T01:51:02;98893.58;;;16.43;32.24
39715;BME280;54166;53.172;-6.552;2023-04-27T01:53:30;98896.71;;;16.43;32.21
39715;BME280;54166;53.172;-6.552;2023-04-27T01:55:58;98899.57;;;16.43;32.25
39715;BME280;54166;53.172;-6.552;2023-04-27T01:58:25;98896.52;;;16.84;32.27
39715;BME280;54166;53.172;-6.552;2023-04-27T02:00:53;98895.17;;;16.43;32.32
39715;BME280;54166;53.172;-6.552;2023-04-27T02:03:20;98892.91;;;16.43;32.31
39715;BME280;54166;53.172;-6.552;2023-04-27T02:05:47;98888.79;;;16.43;32.27
39715;BME280;54166;53.172;-6.552;2023-04-27T02:08:14;98885.13;;;16.43;32.38
39715;BME280;54166;53.172;-6.552;2023-04-27T02:10:41;98884.47;;;16.43;32.31
39715;BME280;54166;53.172;-6.552;2023-04-27T02:13:09;98889.83;;;16.84;32.30
39715;BME280;54166;53.172;-6.552;2023-04-27T02:15:36;98887.72;;;16.43;32.35
39715;BME280;54166;53.172;-6.552;2023-04-27T02:18:03;98882.63;;;16.83;32.36
39715;BME280;54166;53.172;-6.552;2023-04-27T02:20:31;98883.98;;;16.83;32.40
39715;BME280;54166;53.172;-6.552;2023-04-27T02:22:59;98878.37;;;16.83;32.34
39715;BME280;54166;53.172;-6.552;2023-04-27T02:25:27;98876.64;;;16.43;32.35
39715;BME280;54166;53.172;-6.552;2023-04-27T02:27:54;98876.48;;;16.42;32.35
39715;BME280;54166;53.172;-6.552;2023-04-27T02:30:21;98875.11;;;16.42;32.44
39715;BME280;54166;53.172;-6.552;2023-04-27T02:32:48;98877.93;;;16.42;32.53
39715;BME280;54166;53.172;-6.552;2023-04-27T02:35:15;98881.52;;;16.42;32.44
39715;BME280;54166;53.172;-6.552;2023-04-27T02:37:42;98873.17;;;16.41;32.53
39715;BME280;54166;53.172;-6.552;2023-04-27T02:40:10;98868.76;;;16.42;32.48
39715;BME280;54166;53.172;-6.552;2023-04-27T02:42:37;98865.31;;;16.41;32.52
39715;BME280;54166;53.172;-6.552;2023-04-27T02:45:05;98861.15;;;16.41;32.54
39715;BME280;54166;53.172;-6.552;2023-04-27T02:47:34;98857.10;;;16.40;32.52
39715;BME280;54166;53.172;-6.552;2023-04-27T02:50:02;98857.38;;;16.41;32.65
39715;BME280;54166;53.172;-6.552;2023-04-27T02:52:29;98853.29;;;16.40;32.65
39715;BME280;54166;53.172;-6.552;2023-04-27T02:54:56;98852.50;;;16.41;32.42
39715;BME280;54166;53.172;-6.552;2023-04-27T02:57:23;98846.93;;;16.82;32.41
39715;BME280;54166;53.172;-6.552;2023-04-27T02:59:50;98844.82;;;16.43;32.35
39715;BME280;54166;53.172;-6.552;2023-04-27T03:02:17;98843.27;;;16.44;32.34
39715;BME280;54166;53.172;-6.552;2023-04-27T03:04:44;98841.62;;;16.45;32.32
39715;BME280;54166;53.172;-6.552;2023-04-27T03:07:11;98845.06;;;16.85;32.34
39715;BME280;54166;53.172;-6.552;2023-04-27T03:09:38;98845.32;;;16.45;32.36
39715;BME280;54166;53.172;-6.552;2023-04-27T03:12:05;98843.83;;;16.85;32.40
39715;BME280;54166;53.172;-6.552;2023-04-27T03:14:32;98847.75;;;16.45;32.47
39715;BME280;54166;53.172;-6.552;2023-04-27T03:16:59;98847.22;;;16.83;32.48
39715;BME280;54166;53.172;-6.552;2023-04-27T03:19:27;98845.82;;;16.41;32.45
39715;BME280;54166;53.172;-6.552;2023-04-27T03:21:54;98845.56;;;16.40;32.44
39715;BME280;54166;53.172;-6.552;2023-04-27T03:24:21;98842.20;;;16.37;32.44
39715;BME280;54166;53.172;-6.552;2023-04-27T03:26:48;98839.33;;;17.09;32.42
39715;BME280;54166;53.172;-6.552;2023-04-27T03:29:15;98837.22;;;16.34;32.43
39715;BME280;54166;53.172;-6.552;2023-04-27T03:31:42;98833.61;;;17.06;32.42
39715;BME280;54166;53.172;-6.552;2023-04-27T03:34:09;98831.13;;;16.71;32.44
39715;BME280;54166;53.172;-6.552;2023-04-27T03:36:36;98829.84;;;16.30;32.43
39715;BME280;54166;53.172;-6.552;2023-04-27T03:39:03;98827.48;;;16.68;32.44
39715;BME280;54166;53.172;-6.552;2023-04-27T03:41:30;98829.07;;;16.28;32.46
39715;BME280;54166;53.172;-6.552;2023-04-27T03:43:58;98829.74;;;16.67;32.44
39715;BME280;54166;53.172;-6.552;2023-04-27T03:46:25;98824.97;;;16.67;32.45
39715;BME280;54166;53.172;-6.552;2023-04-27T03:48:52;98819.61;;;16.26;32.47
39715;BME280;54166;53.172;-6.552;2023-04-27T03:51:19;98816.83;;;16.32;32.41
39715;BME280;54166;53.172;-6.552;2023-04-27T03:53:46;98814.36;;;16.30;32.43
39715;BME280;54166;53.172;-6.552;2023-04-27T03:56:13;98814.43;;;16.68;32.44
39715;BME280;54166;53.172;-6.552;2023-04-27T03:58:40;98814.50;;;16.25;32.46
39715;BME280;54166;53.172;-6.552;2023-04-27T04:01:07;98812.93;;;16.24;32.48
39715;BME280;54166;53.172;-6.552;2023-04-27T04:03:34;98809.53;;;16.23;32.48
39715;BME280;54166;53.172;-6.552;2023-04-27T04:06:01;98804.65;;;16.22;32.48
39715;BME280;54166;53.172;-6.552;2023-04-27T04:08:28;98799.65;;;16.61;32.50
39715;BME280;54166;53.172;-6.552;2023-04-27T04:10:55;98797.46;;;16.21;32.51
39715;BME280;54166;53.172;-6.552;2023-04-27T04:13:23;98790.58;;;16.60;32.51
39715;BME280;54166;53.172;-6.552;2023-04-27T04:15:59;98785.59;;;16.19;32.54
39715;BME280;54166;53.172;-6.552;2023-04-27T04:18:27;98782.71;;;16.56;32.61
39715;BME280;54166;53.172;-6.552;2023-04-27T04:20:54;98782.84;;;16.17;32.62
39715;BME280;54166;53.172;-6.552;2023-04-27T04:23:22;98777.71;;;16.57;32.62
39715;BME280;54166;53.172;-6.552;2023-04-27T04:25:49;98772.25;;;16.16;32.61
39715;BME280;54166;53.172;-6.552;2023-04-27T04:28:17;98766.87;;;16.16;32.63
39715;BME280;54166;53.172;-6.552;2023-04-27T04:30:44;98767.89;;;16.89;32.64
39715;BME280;54166;53.172;-6.552;2023-04-27T04:33:11;98767.84;;;16.16;32.62
39715;BME280;54166;53.172;-6.552;2023-04-27T04:35:38;98767.18;;;16.16;32.61
39715;BME280;54166;53.172;-6.552;2023-04-27T04:38:11;98769.34;;;16.55;32.62
39715;BME280;54166;53.172;-6.552;2023-04-27T04:40:39;98769.58;;;16.54;32.64
39715;BME280;54166;53.172;-6.552;2023-04-27T04:43:07;98767.09;;;16.12;32.64
39715;BME280;54166;53.172;-6.552;2023-04-27T04:45:35;98759.09;;;16.84;32.65
39715;BME280;54166;53.172;-6.552;2023-04-27T04:48:02;98756.25;;;16.12;32.65
39715;BME280;54166;53.172;-6.552;2023-04-27T04:51:41;98750.32;;;17.47;32.73
39715;BME280;54166;53.172;-6.552;2023-04-27T04:54:09;98744.51;;;16.71;32.80
39715;BME280;54166;53.172;-6.552;2023-04-27T04:56:37;98740.55;;;16.03;32.75
39715;BME280;54166;53.172;-6.552;2023-04-27T04:59:04;98741.15;;;16.05;32.71
39715;BME280;54166;53.172;-6.552;2023-04-27T05:01:31;98737.42;;;16.07;32.70
39715;BME280;54166;53.172;-6.552;2023-04-27T05:03:58;98740.76;;;16.47;32.70
39715;BME280;54166;53.172;-6.552;2023-04-27T05:06:25;98741.58;;;16.46;32.69
39715;BME280;54166;53.172;-6.552;2023-04-27T05:08:52;98741.01;;;16.06;32.70
39715;BME280;54166;53.172;-6.552;2023-04-27T05:11:19;98739.89;;;16.80;32.70
39715;BME280;54166;53.172;-6.552;2023-04-27T05:13:46;98736.20;;;16.07;32.71
39715;BME280;54166;53.172;-6.552;2023-04-27T05:16:13;98731.71;;;16.12;32.66
39715;BME280;54166;53.172;-6.552;2023-04-27T05:18:40;98732.61;;;16.09;32.67
39715;BME280;54166;53.172;-6.552;2023-04-27T05:21:13;98732.83;;;16.82;32.68
39715;BME280;54166;53.172;-6.552;2023-04-27T05:23:40;98730.38;;;16.46;32.72
39715;BME280;54166;53.172;-6.552;2023-04-27T05:26:12;98729.83;;;16.08;32.71
39715;BME280;54166;53.172;-6.552;2023-04-27T05:28:39;98725.08;;;16.80;32.72
39715;BME280;54166;53.172;-6.552;2023-04-27T05:31:07;98724.94;;;16.06;32.74
39715;BME280;54166;53.172;-6.552;2023-04-27T05:33:34;98725.14;;;16.45;32.71
39715;BME280;54166;53.172;-6.552;2023-04-27T05:36:01;98727.14;;;16.05;32.76
39715;BME280;54166;53.172;-6.552;2023-04-27T05:38:29;98727.07;;;16.44;32.78
39715;BME280;54166;53.172;-6.552;2023-04-27T05:40:56;98727.25;;;16.04;32.80
39715;BME280;54166;53.172;-6.552;2023-04-27T05:43:24;98726.84;;;16.04;32.79
39715;BME280;54166;53.172;-6.552;2023-04-27T05:45:52;98723.52;;;16.76;32.79
39715;BME280;54166;53.172;-6.552;2023-04-27T05:48:19;98727.53;;;16.03;32.78
39715;BME280;54166;53.172;-6.552;2023-04-27T05:50:46;98724.16;;;16.77;32.82
39715;BME280;54166;53.172;-6.552;2023-04-27T05:53:13;98724.58;;;16.76;32.81
39715;BME280;54166;53.172;-6.552;2023-04-27T05:55:42;98726.77;;;16.43;32.82
39715;BME280;54166;53.172;-6.552;2023-04-27T05:58:09;98725.99;;;16.01;32.85
39715;BME280;54166;53.172;-6.552;2023-04-27T06:00:36;98725.48;;;16.00;32.86
39715;BME280;54166;53.172;-6.552;2023-04-27T06:03:03;98724.85;;;16.01;32.87
39715;BME280;54166;53.172;-6.552;2023-04-27T06:05:30;98721.76;;;16.01;32.87
39715;BME280;54166;53.172;-6.552;2023-04-27T06:07:57;98716.51;;;16.40;32.91
39715;BME280;54166;53.172;-6.552;2023-04-27T06:10:24;98712.13;;;16.38;32.92
39715;BME280;54166;53.172;-6.552;2023-04-27T06:12:51;98710.60;;;16.39;32.94
39715;BME280;54166;53.172;-6.552;2023-04-27T06:15:18;98711.64;;;16.39;32.94
39715;BME280;54166;53.172;-6.552;2023-04-27T06:17:45;98701.16;;;16.39;32.96
39715;BME280;54166;53.172;-6.552;2023-04-27T06:20:12;98694.82;;;15.98;32.97
39715;BME280;54166;53.172;-6.552;2023-04-27T06:22:39;98687.83;;;16.72;32.95
39715;BME280;54166;53.172;-6.552;2023-04-27T06:25:06;98687.97;;;15.98;32.98
39715;BME280;54166;53.172;-6.552;2023-04-27T06:27:34;98686.58;;;16.38;32.99
39715;BME280;54166;53.172;-6.552;2023-04-27T06:30:02;98683.72;;;15.98;33.02
39715;BME280;54166;53.172;-6.552;2023-04-27T06:32:29;98675.28;;;16.38;33.03
39715;BME280;54166;53.172;-6.552;2023-04-27T06:34:56;98673.91;;;16.38;33.06
39715;BME280;54166;53.172;-6.552;2023-04-27T06:37:23;98678.46;;;16.71;33.08
39715;BME280;54166;53.172;-6.552;2023-04-27T06:39:50;98683.59;;;16.70;33.12
39715;BME280;54166;53.172;-6.552;2023-04-27T06:42:17;98685.58;;;16.70;33.12
39715;BME280;54166;53.172;-6.552;2023-04-27T06:44:44;98683.80;;;16.00;33.14
39715;BME280;54166;53.172;-6.552;2023-04-27T06:47:11;98672.83;;;16.01;33.15
39715;BME280;54166;53.172;-6.552;2023-04-27T06:49:39;98675.95;;;16.76;33.15
39715;BME280;54166;53.172;-6.552;2023-04-27T06:52:06;98684.34;;;16.74;33.16
39715;BME280;54166;53.172;-6.552;2023-04-27T06:54:33;98684.64;;;16.75;33.17
39715;BME280;54166;53.172;-6.552;2023-04-27T06:57:00;98683.07;;;16.41;33.20
39715;BME280;54166;53.172;-6.552;2023-04-27T06:59:27;98680.31;;;16.42;33.23
39715;BME280;54166;53.172;-6.552;2023-04-27T07:01:55;98675.90;;;16.42;33.24
39715;BME280;54166;53.172;-6.552;2023-04-27T07:04:22;98677.85;;;16.84;33.16
39715;BME280;54166;53.172;-6.552;2023-04-27T07:06:49;98679.29;;;16.49;33.19
39715;BME280;54166;53.172;-6.552;2023-04-27T07:09:16;98678.55;;;16.09;33.18
39715;BME280;54166;53.172;-6.552;2023-04-27T07:11:43;98674.60;;;16.49;33.20
39715;BME280;54166;53.172;-6.552;2023-04-27T07:14:10;98669.86;;;16.10;33.42
39715;BME280;54166;53.172;-6.552;2023-04-27T07:16:38;98668.96;;;16.50;33.77
39715;BME280;54166;53.172;-6.552;2023-04-27T07:19:05;98670.63;;;16.86;33.75
39715;BME280;54166;53.172;-6.552;2023-04-27T07:21:32;98670.35;;;16.88;33.77
39715;BME280;54166;53.172;-6.552;2023-04-27T07:23:59;98670.99;;;16.89;34.11
39715;BME280;54166;53.172;-6.552;2023-04-27T07:26:27;98664.72;;;16.58;34.16
39715;BME280;54166;53.172;-6.552;2023-04-27T07:28:54;98669.22;;;16.58;34.01
39715;BME280;54166;53.172;-6.552;2023-04-27T07:31:21;98671.54;;;16.57;33.77
39715;BME280;54166;53.172;-6.552;2023-04-27T07:33:48;98669.93;;;16.17;33.80
39715;BME280;54166;53.172;-6.552;2023-04-27T07:36:15;98667.86;;;16.16;33.80
39715;BME280;54166;53.172;-6.552;2023-04-27T07:38:42;98666.99;;;16.15;33.79
39715;BME280;54166;53.172;-6.552;2023-04-27T07:41:09;98665.01;;;16.91;34.00
39715;BME280;54166;53.172;-6.552;2023-04-27T07:43:36;98663.39;;;16.89;34.09
39715;BME280;54166;53.172;-6.552;2023-04-27T07:46:03;98659.04;;;16.89;34.27
39715;BME280;54166;53.172;-6.552;2023-04-27T07:48:31;98656.10;;;16.99;34.18
39715;BME280;54166;53.172;-6.552;2023-04-27T07:50:58;98653.95;;;16.69;34.30
39715;BME280;54166;53.172;-6.552;2023-04-27T07:53:25;98648.22;;;16.73;34.19
39715;BME280;54166;53.172;-6.552;2023-04-27T07:55:52;98643.47;;;16.76;34.24
39715;BME280;54166;53.172;-6.552;2023-04-27T07:58:19;98645.74;;;16.38;34.38
39715;BME280;54166;53.172;-6.552;2023-04-27T08:00:46;98643.80;;;16.79;34.22
39715;BME280;54166;53.172;-6.552;2023-04-27T08:03:13;98645.39;;;16.39;34.16
39715;BME280;54166;53.172;-6.552;2023-04-27T08:05:40;98644.39;;;16.39;34.14
39715;BME280;54166;53.172;-6.552;2023-04-27T08:08:07;98645.97;;;16.38;34.17
39715;BME280;54166;53.172;-6.552;2023-04-27T08:10:34;98648.30;;;16.37;34.21
39715;BME280;54166;53.172;-6.552;2023-04-27T08:13:01;98643.48;;;16.35;34.22
39715;BME280;54166;53.172;-6.552;2023-04-27T08:15:28;98638.16;;;16.73;34.20
39715;BME280;54166;53.172;-6.552;2023-04-27T08:17:55;98630.95;;;17.06;34.20
39715;BME280;54166;53.172;-6.552;2023-04-27T08:20:22;98629.50;;;16.32;34.48
39715;BME280;54166;53.172;-6.552;2023-04-27T08:22:50;98629.39;;;17.07;34.32
39715;BME280;54166;53.172;-6.552;2023-04-27T08:25:18;98627.82;;;16.31;34.37
39715;BME280;54166;53.172;-6.552;2023-04-27T08:27:46;98622.96;;;16.70;34.27
39715;BME280;54166;53.172;-6.552;2023-04-27T08:30:13;98620.99;;;16.68;34.40
39715;BME280;54166;53.172;-6.552;2023-04-27T08:32:41;98618.10;;;16.25;34.30
39715;BME280;54166;53.172;-6.552;2023-04-27T08:35:08;98618.15;;;16.66;34.36
39715;BME280;54166;53.172;-6.552;2023-04-27T08:37:35;98616.61;;;16.26;34.37
39715;BME280;54166;53.172;-6.552;2023-04-27T08:40:04;98613.89;;;17.00;34.33
39715;BME280;54166;53.172;-6.552;2023-04-27T08:42:32;98612.85;;;17.00;34.30
39715;BME280;54166;53.172;-6.552;2023-04-27T08:44:59;98607.32;;;16.67;34.34
39715;BME280;54166;53.172;-6.552;2023-04-27T08:47:26;98602.81;;;16.69;34.34
39715;BME280;54166;53.172;-6.552;2023-04-27T08:49:53;98598.99;;;16.30;34.38
39715;BME280;54166;53.172;-6.552;2023-04-27T08:52:20;98590.42;;;16.69;34.47
39715;BME280;54166;53.172;-6.552;2023-04-27T08:54:48;98588.34;;;17.05;34.55
39715;BME280;54166;53.172;-6.552;2023-04-27T08:57:16;98584.87;;;17.04;34.47
39715;BME280;54166;53.172;-6.552;2023-04-27T08:59:43;98580.50;;;16.31;34.33
39715;BME280;54166;53.172;-6.552;2023-04-27T09:02:18;98577.59;;;16.70;34.34
39715;BME280;54166;53.172;-6.552;2023-04-27T09:04:45;98570.03;;;16.68;34.25
39715;BME280;54166;53.172;-6.552;2023-04-27T09:07:13;98571.18;;;16.71;34.37
39715;BME280;54166;53.172;-6.552;2023-04-27T09:09:41;98565.39;;;16.73;34.53
39715;BME280;54166;53.172;-6.552;2023-04-27T09:12:17;98565.67;;;16.39;34.49
39715;BME280;54166;53.172;-6.552;2023-04-27T09:14:56;98568.88;;;16.40;34.47
39715;BME280;54166;53.172;-6.552;2023-04-27T09:17:25;98571.84;;;17.12;34.37
39715;BME280;54166;53.172;-6.552;2023-04-27T09:20:03;98573.19;;;16.39;34.27
39715;BME280;54166;53.172;-6.552;2023-04-27T09:22:30;98573.15;;;16.78;34.24
39715;BME280;54166;53.172;-6.552;2023-04-27T09:24:57;98572.50;;;17.11;34.17
39715;BME280;54166;53.172;-6.552;2023-04-27T09:27:24;98571.10;;;16.36;34.16
39715;BME280;54166;53.172;-6.552;2023-04-27T09:29:51;98573.17;;;16.75;34.16
39715;BME280;54166;53.172;-6.552;2023-04-27T09:32:18;98571.33;;;16.36;34.10
39715;BME280;54166;53.172;-6.552;2023-04-27T09:34:46;98568.26;;;16.36;34.16
39715;BME280;54166;53.172;-6.552;2023-04-27T09:37:13;98565.31;;;16.76;34.13
39715;BME280;54166;53.172;-6.552;2023-04-27T09:39:42;98565.09;;;16.35;34.10
39715;BME280;54166;53.172;-6.552;2023-04-27T09:42:11;98564.34;;;16.35;34.20
39715;BME280;54166;53.172;-6.552;2023-04-27T09:44:38;98560.36;;;16.75;34.15
39715;BME280;54166;53.172;-6.552;2023-04-27T09:47:06;98560.66;;;16.35;34.13
39715;BME280;54166;53.172;-6.552;2023-04-27T09:49:34;98559.59;;;16.35;34.13
39715;BME280;54166;53.172;-6.552;2023-04-27T09:52:02;98559.62;;;16.75;34.17
39715;BME280;54166;53.172;-6.552;2023-04-27T09:54:30;98554.63;;;17.07;34.11
39715;BME280;54166;53.172;-6.552;2023-04-27T09:57:08;98551.41;;;16.34;34.08
39715;BME280;54166;53.172;-6.552;2023-04-27T09:59:50;98549.18;;;17.07;34.15
39715;BME280;54166;53.172;-6.552;2023-04-27T10:02:22;98544.05;;;16.32;34.09
39715;BME280;54166;53.172;-6.552;2023-04-27T10:05:05;98536.47;;;16.74;34.10
39715;BME280;54166;53.172;-6.552;2023-04-27T10:07:38;98536.21;;;16.33;34.17
39715;BME280;54166;53.172;-6.552;2023-04-27T10:10:15;98531.97;;;16.36;34.16
39715;BME280;54166;53.172;-6.552;2023-04-27T10:12:43;98534.90;;;16.79;34.19
39715;BME280;54166;53.172;-6.552;2023-04-27T10:15:13;98529.10;;;16.81;34.42
39715;BME280;54166;53.172;-6.552;2023-04-27T10:17:47;98527.39;;;16.42;34.37
39715;BME280;54166;53.172;-6.552;2023-04-27T10:20:15;98524.79;;;16.44;34.28
39715;BME280;54166;53.172;-6.552;2023-04-27T10:22:46;98524.32;;;16.86;34.50
39715;BME280;54166;53.172;-6.552;2023-04-27T10:25:16;98523.78;;;16.48;34.72
39715;BME280;54166;53.172;-6.552;2023-04-27T10:27:48;98515.62;;;16.47;34.56
39715;BME280;54166;53.172;-6.552;2023-04-27T10:55:25;98512.96;;;17.40;37.13
39715;BME280;54166;53.172;-6.552;2023-04-27T10:57:54;98512.37;;;14.62;36.06
39715;BME280;54166;53.172;-6.552;2023-04-27T11:00:22;98505.02;;;15.25;34.88
39715;BME280;54166;53.172;-6.552;2023-04-27T11:02:48;98503.49;;;15.74;33.88
39715;BME280;54166;53.172;-6.552;2023-04-27T11:05:17;98505.36;;;17.58;33.68
39715;BME280;54166;53.172;-6.552;2023-04-27T11:07:45;98500.92;;;17.71;34.35
39715;BME280;54166;53.172;-6.552;2023-04-27T11:10:16;98495.30;;;17.38;34.84
39715;BME280;54166;53.172;-6.552;2023-04-27T11:12:44;98487.51;;;17.18;35.11
39715;BME280;54166;53.172;-6.552;2023-04-27T11:15:12;98487.58;;;17.09;35.18
39715;BME280;54166;53.172;-6.552;2023-04-27T11:17:40;98487.96;;;17.03;35.27
39715;BME280;54166;53.172;-6.552;2023-04-27T11:20:08;98485.92;;;16.99;35.24
39715;BME280;54166;53.172;-6.552;2023-04-27T11:22:45;98481.73;;;17.36;35.25
39715;BME280;54166;53.172;-6.552;2023-04-27T11:25:12;98478.79;;;16.93;35.31
39715;BME280;54166;53.172;-6.552;2023-04-27T11:27:40;98479.26;;;16.93;35.38
39715;BME280;54166;53.172;-6.552;2023-04-27T11:30:18;98477.26;;;16.91;35.35
39715;BME280;54166;53.172;-6.552;2023-04-27T11:32:46;98474.88;;;16.89;35.46
39715;BME280;54166;53.172;-6.552;2023-04-27T11:35:14;98476.34;;;16.88;35.40
39715;BME280;54166;53.172;-6.552;2023-04-27T11:37:42;98469.74;;;16.88;35.36
39715;BME280;54166;53.172;-6.552;2023-04-27T11:40:12;98471.92;;;16.86;35.35
39715;BME280;54166;53.172;-6.552;2023-04-27T11:42:39;98474.33;;;16.85;35.37
39715;BME280;54166;53.172;-6.552;2023-04-27T11:45:09;98473.56;;;16.84;35.34
39715;BME280;54166;53.172;-6.552;2023-04-27T11:47:37;98473.85;;;17.21;35.36
39715;BME280;54166;53.172;-6.552;2023-04-27T11:50:06;98470.32;;;16.80;35.34
39715;BME280;54166;53.172;-6.552;2023-04-27T11:52:34;98470.99;;;16.79;35.32
39715;BME280;54166;53.172;-6.552;2023-04-27T11:55:03;98474.29;;;16.44;35.28
39715;BME280;54166;53.172;-6.552;2023-04-27T11:57:33;98472.70;;;16.75;35.22
39715;BME280;54166;53.172;-6.552;2023-04-27T12:00:02;98477.28;;;16.74;35.23
39715;BME280;54166;53.172;-6.552;2023-04-27T12:02:30;98470.27;;;16.72;35.19
39715;BME280;54166;53.172;-6.552;2023-04-27T12:04:58;98473.12;;;16.72;35.20
39715;BME280;54166;53.172;-6.552;2023-04-27T12:07:25;98467.92;;;16.70;35.16
39715;BME280;54166;53.172;-6.552;2023-04-27T12:09:52;98466.07;;;16.70;35.16
39715;BME280;54166;53.172;-6.552;2023-04-27T12:12:20;98466.17;;;16.70;35.16
39715;BME280;54166;53.172;-6.552;2023-04-27T12:14:46;98465.08;;;16.71;35.10
39715;BME280;54166;53.172;-6.552;2023-04-27T12:17:13;98467.07;;;16.72;35.07
39715;BME280;54166;53.172;-6.552;2023-04-27T12:19:40;98466.20;;;16.73;35.06
39715;BME280;54166;53.172;-6.552;2023-04-27T12:22:08;98461.11;;;16.73;34.99
39715;BME280;54166;53.172;-6.552;2023-04-27T12:24:35;98460.08;;;16.73;34.96
39715;BME280;54166;53.172;-6.552;2023-04-27T12:27:02;98464.94;;;16.72;34.97
39715;BME280;54166;53.172;-6.552;2023-04-27T12:29:30;98461.56;;;16.73;34.96
39715;BME280;54166;53.172;-6.552;2023-04-27T12:31:58;98459.64;;;16.74;34.96
39715;BME280;54166;53.172;-6.552;2023-04-27T12:34:25;98456.24;;;16.76;34.93
39715;BME280;54166;53.172;-6.552;2023-04-27T12:36:53;98456.94;;;17.17;34.91
39715;BME280;54166;53.172;-6.552;2023-04-27T12:39:21;98452.93;;;16.79;34.98
39715;BME280;54166;53.172;-6.552;2023-04-27T12:41:49;98457.45;;;16.82;34.96
39715;BME280;54166;53.172;-6.552;2023-04-27T12:44:18;98454.75;;;16.84;34.99
39715;BME280;54166;53.172;-6.552;2023-04-27T12:46:45;98450.82;;;16.85;34.98
39715;BME280;54166;53.172;-6.552;2023-04-27T12:49:13;98447.70;;;16.85;35.01
39715;BME280;54166;53.172;-6.552;2023-04-27T12:51:41;98444.52;;;16.84;34.98
39715;BME280;54166;53.172;-6.552;2023-04-27T12:54:09;98443.31;;;16.82;34.97
39715;BME280;54166;53.172;-6.552;2023-04-27T12:56:36;98439.44;;;16.83;34.96
39715;BME280;54166;53.172;-6.552;2023-04-27T12:59:04;98437.44;;;16.82;34.94
39715;BME280;54166;53.172;-6.552;2023-04-27T13:01:32;98438.51;;;16.83;34.90
39715;BME280;54166;53.172;-6.552;2023-04-27T13:04:00;98429.40;;;16.86;34.94
39715;BME280;54166;53.172;-6.552;2023-04-27T13:06:28;98426.74;;;16.85;34.90
39715;BME280;54166;53.172;-6.552;2023-04-27T13:08:56;98428.09;;;16.86;34.89
39715;BME280;54166;53.172;-6.552;2023-04-27T13:11:24;98430.10;;;17.26;34.88
39715;BME280;54166;53.172;-6.552;2023-04-27T13:13:51;98421.45;;;16.86;34.89
39715;BME280;54166;53.172;-6.552;2023-04-27T13:16:18;98415.11;;;16.86;34.88
39715;BME280;54166;53.172;-6.552;2023-04-27T13:18:45;98416.40;;;16.87;34.89